KWWR/WWR METAR and TAF weather

Enter ICAO airport designator
Station Type Date Time Source
KWWR METAR 2019/02/16 03:15 UTC NOAA

KWWR 160315Z AUTO 03006KT 10SM OVC010 M05/M07 A3002 RMK AO2


Station Type Date Time Source
KWWR Decoded METAR 2019/02/16 03:15 UTC NOAA

Woodward, West Woodward Airport, OK, United States (KWWR) 36-26-12N 099-31-16W 667M
Feb 15, 2019 - 10:15 PM EST / 2019.02.16 0315 UTC
Wind: from the NNE (030 degrees) at 7 MPH (6 KT):0
Visibility: 10 mile(s):0
Sky conditions: overcast
Temperature: 23 F (-5 C)
Windchill: 14 F (-10 C):1
Dew Point: 19 F (-7 C)
Relative Humidity: 85%
Pressure (altimeter): 30.02 in. Hg (1016 hPa)
ob: KWWR 160315Z AUTO 03006KT 10SM OVC010 M05/M07 A3002 RMK AO2
cycle: 3

Station Type Date Time Source
KWWR TAF 2019/02/15 18:30 UTC NOAA

TAF KWWR 151729Z 1518/1618 04012KT P6SM OVC008
FM152300 03010KT P6SM SCT013 BKN250
FM161200 09008KT P6SM OVC015


Example: see airport list